This is the latest recevied weather packets stored in our database for station/object Wangen. If no packets are shown the sender has not sent any weather packets the latest 10 day(s).
| Time | Temp. | Humidity | Pressure | Rain* | Wind** | Luminosity | Snow |
|---|---|---|---|---|---|---|---|
| 1777842131 | 15° C | 66% | 1013.4 hPa | 0 mm | - | - | - |
| 1777840329 | 15° C | 64% | 1013.2 hPa | 0 mm | - | - | - |
| 1777838531 | 15.56° C | 62% | 1012.8 hPa | 0 mm | - | - | - |
| 1777836730 | 16.67° C | 57% | 1012.6 hPa | 0 mm | - | - | - |
| 1777834930 | 17.78° C | 53% | 1012 hPa | 0 mm | - | - | - |
| 1777833130 | 17.78° C | 49% | 1011.6 hPa | 0 mm | - | - | - |
| 1777831330 | 20° C | 45% | 1011.5 hPa | 0 mm | - | - | - |
| 1777829530 | 21.67° C | 47% | 1010.5 hPa | 0 mm | - | - | - |
| 1777827731 | 22.22° C | 45% | 1010.5 hPa | 0 mm | - | - | - |
| 1777825930 | 23.33° C | 42% | 1010.6 hPa | 0 mm | - | - | - |
| 1777824131 | 23.89° C | 39% | 1010.2 hPa | 0 mm | - | - | - |
| 1777822330 | 24.44° C | 39% | 1010.3 hPa | 0 mm | - | - | - |
| 1777820530 | 24.44° C | 36% | 1010.5 hPa | 0 mm | - | - | - |
| 1777818730 | 25° C | 35% | 1010.7 hPa | 0 mm | - | - | - |
| 1777816930 | 25.56° C | 33% | 1010.6 hPa | 0 mm | - | - | - |
| 1777815131 | 24.44° C | 33% | 1011 hPa | 0 mm | - | - | - |
| 1777813330 | 25° C | 34% | 1011.3 hPa | 0 mm | - | - | - |
| 1777811536 | 23.33° C | 38% | 1011.8 hPa | 0 mm | - | - | - |
| 1777809730 | 23.33° C | 36% | 1012.1 hPa | 0 mm | - | - | - |
| 1777807932 | 23.33° C | 37% | 1012.3 hPa | 0 mm | - | - | - |
| 1777806130 | 22.22° C | 38% | 1012.5 hPa | 0 mm | - | - | - |
| 1777804332 | 22.22° C | 42% | 1013 hPa | 0 mm | - | - | - |
| 1777802532 | 21.11° C | 44% | 1013.3 hPa | 0 mm | - | - | - |
| 1777800731 | 20.56° C | 46% | 1013.5 hPa | 0 mm | - | - | - |
| 1777798930 | 20° C | 46% | 1013.7 hPa | 0 mm | - | - | - |
* Rain since midnight (hover to see other rain measurements)
** Current wind speed in m/s (hover to see current wind gust speed)